sensor_id;sensor_type;location;lat;lon;timestamp;pressure;altitude;pressure_sealevel;temperature;humidity
63493;BME280;49638;47.526;10.028;2022-09-09T00:02:25;91576.84;;;13.78;88.81
63493;BME280;49638;47.526;10.028;2022-09-09T00:06:11;91576.31;;;13.76;89.91
63493;BME280;49638;47.526;10.028;2022-09-09T00:09:15;91572.06;;;13.75;88.88
63493;BME280;49638;47.526;10.028;2022-09-09T00:19:07;91567.81;;;13.73;89.45
63493;BME280;49638;47.526;10.028;2022-09-09T00:22:18;91560.34;;;13.65;88.92
63493;BME280;49638;47.526;10.028;2022-09-09T00:25:34;91563.84;;;13.66;89.35
63493;BME280;49638;47.526;10.028;2022-09-09T00:29:05;91559.84;;;13.63;89.51
63493;BME280;49638;47.526;10.028;2022-09-09T00:32:17;91553.47;;;13.59;88.73
63493;BME280;49638;47.526;10.028;2022-09-09T00:35:27;91557.72;;;13.60;88.90
63493;BME280;49638;47.526;10.028;2022-09-09T00:38:48;91552.41;;;13.60;89.00
63493;BME280;49638;47.526;10.028;2022-09-09T00:42:24;91552.41;;;13.60;89.83
63493;BME280;49638;47.526;10.028;2022-09-09T00:49:00;91547.09;;;13.60;88.92
63493;BME280;49638;47.526;10.028;2022-09-09T00:52:41;91539.13;;;13.60;88.79
63493;BME280;49638;47.526;10.028;2022-09-09T00:56:38;91542.84;;;13.59;88.57
63493;BME280;49638;47.526;10.028;2022-09-09T00:59:49;91544.97;;;13.57;88.50
63493;BME280;49638;47.526;10.028;2022-09-09T01:05:54;91538.59;;;13.53;88.97
63493;BME280;49638;47.526;10.028;2022-09-09T01:09:23;91536.19;;;13.46;88.73
63493;BME280;49638;47.526;10.028;2022-09-09T01:15:35;91538.06;;;13.51;88.80
63493;BME280;49638;47.526;10.028;2022-09-09T01:18:40;91539.41;;;13.48;88.84
63493;BME280;49638;47.526;10.028;2022-09-09T01:21:48;91535.41;;;13.51;88.78
63493;BME280;49638;47.526;10.028;2022-09-09T01:28:27;91522.94;;;13.46;88.40
63493;BME280;49638;47.526;10.028;2022-09-09T01:31:30;91524.78;;;13.51;88.54
63493;BME280;49638;47.526;10.028;2022-09-09T01:34:37;91518.41;;;13.47;88.36
63493;BME280;49638;47.526;10.028;2022-09-09T01:37:37;91525.81;;;13.45;88.57
63493;BME280;49638;47.526;10.028;2022-09-09T01:40:38;91514.94;;;13.41;88.19
63493;BME280;49638;47.526;10.028;2022-09-09T01:43:38;91518.94;;;13.44;88.30
63493;BME280;49638;47.526;10.028;2022-09-09T01:46:39;91513.13;;;13.42;87.87
63493;BME280;49638;47.526;10.028;2022-09-09T01:49:40;91512.56;;;13.45;87.91
63493;BME280;49638;47.526;10.028;2022-09-09T01:52:40;91508.59;;;13.47;87.64
63493;BME280;49638;47.526;10.028;2022-09-09T02:02:36;91523.75;;;13.52;86.52
63493;BME280;49638;47.526;10.028;2022-09-09T02:06:17;91515.22;;;13.50;86.34
63493;BME280;49638;47.526;10.028;2022-09-09T02:09:26;91512.28;;;13.52;86.87
63493;BME280;49638;47.526;10.028;2022-09-09T02:12:27;91510.19;;;13.48;86.97
63493;BME280;49638;47.526;10.028;2022-09-09T02:15:38;91515.78;;;13.52;86.72
63493;BME280;49638;47.526;10.028;2022-09-09T02:22:05;91524.00;;;13.56;87.21
63493;BME280;49638;47.526;10.028;2022-09-09T02:25:07;91508.34;;;13.59;87.23
63493;BME280;49638;47.526;10.028;2022-09-09T02:28:09;91508.59;;;13.58;87.37
63493;BME280;49638;47.526;10.028;2022-09-09T02:31:15;91517.34;;;13.63;87.29
63493;BME280;49638;47.526;10.028;2022-09-09T02:34:20;91502.47;;;13.57;87.00
63493;BME280;49638;47.526;10.028;2022-09-09T02:37:26;91520.53;;;13.60;87.23
63493;BME280;49638;47.526;10.028;2022-09-09T02:40:28;91526.13;;;13.59;87.50
63493;BME280;49638;47.526;10.028;2022-09-09T02:43:33;91488.41;;;13.36;87.85
63493;BME280;49638;47.526;10.028;2022-09-09T02:50:09;91535.69;;;13.49;86.49
63493;BME280;49638;47.526;10.028;2022-09-09T02:53:25;91528.75;;;13.43;86.69
63493;BME280;49638;47.526;10.028;2022-09-09T02:56:32;91517.59;;;13.31;86.83
63493;BME280;49638;47.526;10.028;2022-09-09T02:59:39;91521.06;;;13.32;86.42
63493;BME280;49638;47.526;10.028;2022-09-09T03:02:40;91521.59;;;13.29;86.79
63493;BME280;49638;47.526;10.028;2022-09-09T03:05:40;91524.78;;;13.25;86.93
63493;BME280;49638;47.526;10.028;2022-09-09T03:08:40;91512.50;;;13.14;87.07
63493;BME280;49638;47.526;10.028;2022-09-09T03:11:42;91511.97;;;13.17;87.17
63493;BME280;49638;47.526;10.028;2022-09-09T03:14:42;91512.25;;;13.16;87.07
63493;BME280;49638;47.526;10.028;2022-09-09T03:17:45;91514.63;;;13.17;86.96
63493;BME280;49638;47.526;10.028;2022-09-09T03:20:46;91518.34;;;13.16;86.69
63493;BME280;49638;47.526;10.028;2022-09-09T03:23:48;91509.31;;;13.17;86.78
63493;BME280;49638;47.526;10.028;2022-09-09T03:26:48;91510.91;;;13.08;86.63
63493;BME280;49638;47.526;10.028;2022-09-09T03:29:50;91515.94;;;13.10;86.51
63493;BME280;49638;47.526;10.028;2022-09-09T03:32:51;91511.69;;;12.98;87.15
63493;BME280;49638;47.526;10.028;2022-09-09T03:35:52;91516.22;;;12.98;87.29
63493;BME280;49638;47.526;10.028;2022-09-09T03:38:53;91525.19;;;12.97;87.01
63493;BME280;49638;47.526;10.028;2022-09-09T03:41:54;91527.59;;;12.98;87.25
63493;BME280;49638;47.526;10.028;2022-09-09T03:44:54;91519.66;;;12.98;87.08
63493;BME280;49638;47.526;10.028;2022-09-09T03:47:57;91527.59;;;12.98;87.03
63493;BME280;49638;47.526;10.028;2022-09-09T03:50:58;91530.25;;;13.03;87.11
63493;BME280;49638;47.526;10.028;2022-09-09T03:54:00;91528.69;;;13.08;86.74
63493;BME280;49638;47.526;10.028;2022-09-09T03:57:01;91518.34;;;13.11;86.64
63493;BME280;49638;47.526;10.028;2022-09-09T04:00:04;91532.16;;;13.18;86.71
63493;BME280;49638;47.526;10.028;2022-09-09T04:03:05;91524.19;;;13.23;86.68
63493;BME280;49638;47.526;10.028;2022-09-09T04:06:08;91525.81;;;13.24;86.77
63493;BME280;49638;47.526;10.028;2022-09-09T04:09:09;91521.81;;;13.22;86.88
63493;BME280;49638;47.526;10.028;2022-09-09T04:12:09;91528.22;;;13.26;86.88
63493;BME280;49638;47.526;10.028;2022-09-09T04:15:13;91542.81;;;13.29;86.77
63493;BME280;49638;47.526;10.028;2022-09-09T04:18:13;91539.38;;;13.33;86.36
63493;BME280;49638;47.526;10.028;2022-09-09T04:21:13;91543.34;;;13.41;86.27
63493;BME280;49638;47.526;10.028;2022-09-09T04:24:14;91542.03;;;13.43;86.24
63493;BME280;49638;47.526;10.028;2022-09-09T04:27:16;91548.16;;;13.54;85.88
63493;BME280;49638;47.526;10.028;2022-09-09T04:30:16;91551.63;;;13.60;85.52
63493;BME280;49638;47.526;10.028;2022-09-09T04:33:16;91547.91;;;13.66;85.24
63493;BME280;49638;47.526;10.028;2022-09-09T04:36:19;91540.97;;;13.65;84.99
63493;BME280;49638;47.526;10.028;2022-09-09T04:39:20;91542.84;;;13.69;84.88
63493;BME280;49638;47.526;10.028;2022-09-09T04:42:20;91558.00;;;13.79;84.98
63493;BME280;49638;47.526;10.028;2022-09-09T04:45:20;91563.56;;;13.83;84.91
63493;BME280;49638;47.526;10.028;2022-09-09T04:48:21;91563.28;;;13.84;85.15
63493;BME280;49638;47.526;10.028;2022-09-09T04:51:21;91562.75;;;13.82;84.96
63493;BME280;49638;47.526;10.028;2022-09-09T04:54:22;91567.56;;;13.80;85.05
63493;BME280;49638;47.526;10.028;2022-09-09T04:57:22;91564.91;;;13.80;85.01
63493;BME280;49638;47.526;10.028;2022-09-09T05:00:22;91573.66;;;13.81;84.75
63493;BME280;49638;47.526;10.028;2022-09-09T05:03:23;91574.72;;;13.85;84.54
63493;BME280;49638;47.526;10.028;2022-09-09T05:06:23;91571.78;;;13.81;84.33
63493;BME280;49638;47.526;10.028;2022-09-09T05:09:24;91575.50;;;13.85;84.35
63493;BME280;49638;47.526;10.028;2022-09-09T05:12:25;91581.63;;;13.86;84.69
63493;BME280;49638;47.526;10.028;2022-09-09T05:15:25;91585.09;;;13.86;84.86
63493;BME280;49638;47.526;10.028;2022-09-09T05:18:25;91577.91;;;13.82;84.83
63493;BME280;49638;47.526;10.028;2022-09-09T05:21:26;91585.34;;;13.90;85.00
63493;BME280;49638;47.526;10.028;2022-09-09T05:24:27;91590.38;;;13.91;84.95
63493;BME280;49638;47.526;10.028;2022-09-09T05:27:27;91594.38;;;13.89;85.09
63493;BME280;49638;47.526;10.028;2022-09-09T05:30:27;91597.03;;;13.94;84.94
63493;BME280;49638;47.526;10.028;2022-09-09T05:33:28;91596.75;;;13.95;85.19
63493;BME280;49638;47.526;10.028;2022-09-09T05:36:28;91595.72;;;13.96;84.89
63493;BME280;49638;47.526;10.028;2022-09-09T05:39:28;91596.22;;;13.99;84.84
63493;BME280;49638;47.526;10.028;2022-09-09T05:42:30;91593.06;;;13.96;84.73
63493;BME280;49638;47.526;10.028;2022-09-09T05:45:30;91589.88;;;14.00;85.44
63493;BME280;49638;47.526;10.028;2022-09-09T05:48:32;91606.34;;;14.07;85.42
63493;BME280;49638;47.526;10.028;2022-09-09T05:51:33;91603.41;;;14.08;85.94
63493;BME280;49638;47.526;10.028;2022-09-09T05:54:33;91602.06;;;14.06;86.01
63493;BME280;49638;47.526;10.028;2022-09-09T05:57:33;91608.72;;;14.08;85.44
63493;BME280;49638;47.526;10.028;2022-09-09T06:00:34;91595.19;;;14.00;85.15
63493;BME280;49638;47.526;10.028;2022-09-09T06:03:35;91609.50;;;14.09;85.37
63493;BME280;49638;47.526;10.028;2022-09-09T06:06:37;91617.22;;;14.10;85.74
63493;BME280;49638;47.526;10.028;2022-09-09T06:09:38;91616.69;;;14.13;85.55
63493;BME280;49638;47.526;10.028;2022-09-09T06:12:39;91593.56;;;14.09;85.52
63493;BME280;49638;47.526;10.028;2022-09-09T06:15:49;91612.69;;;14.16;85.78
63493;BME280;49638;47.526;10.028;2022-09-09T06:18:50;91602.34;;;14.14;85.70
63493;BME280;49638;47.526;10.028;2022-09-09T06:21:51;91602.06;;;14.16;85.90
63493;BME280;49638;47.526;10.028;2022-09-09T06:24:51;91594.63;;;14.13;86.01
63493;BME280;49638;47.526;10.028;2022-09-09T06:27:51;91586.94;;;14.11;85.83
63493;BME280;49638;47.526;10.028;2022-09-09T06:30:57;91595.97;;;14.20;84.81
63493;BME280;49638;47.526;10.028;2022-09-09T06:33:59;91581.88;;;14.15;85.49
63493;BME280;49638;47.526;10.028;2022-09-09T06:36:59;91588.50;;;14.23;85.50
63493;BME280;49638;47.526;10.028;2022-09-09T06:40:00;91587.19;;;14.20;85.53
63493;BME280;49638;47.526;10.028;2022-09-09T06:43:00;91589.03;;;14.19;85.81
63493;BME280;49638;47.526;10.028;2022-09-09T06:46:06;91590.13;;;14.24;85.52
63493;BME280;49638;47.526;10.028;2022-09-09T06:49:09;91590.63;;;14.26;85.55
63493;BME280;49638;47.526;10.028;2022-09-09T06:52:09;91586.09;;;14.31;85.35
63493;BME280;49638;47.526;10.028;2022-09-09T06:55:09;91590.63;;;14.41;85.30
63493;BME280;49638;47.526;10.028;2022-09-09T06:58:10;91590.88;;;14.44;85.28
63493;BME280;49638;47.526;10.028;2022-09-09T07:01:15;91590.59;;;14.46;84.89
63493;BME280;49638;47.526;10.028;2022-09-09T07:04:16;91597.53;;;14.52;85.00
63493;BME280;49638;47.526;10.028;2022-09-09T07:07:17;91595.91;;;14.56;85.04
63493;BME280;49638;47.526;10.028;2022-09-09T07:10:17;91598.56;;;14.56;84.89
63493;BME280;49638;47.526;10.028;2022-09-09T07:13:18;91605.47;;;14.62;84.90
63493;BME280;49638;47.526;10.028;2022-09-09T07:16:22;91599.34;;;14.67;84.80
63493;BME280;49638;47.526;10.028;2022-09-09T07:19:25;91603.88;;;14.66;84.72
63493;BME280;49638;47.526;10.028;2022-09-09T07:22:27;91611.31;;;14.70;84.48
63493;BME280;49638;47.526;10.028;2022-09-09T07:25:27;91592.97;;;14.63;84.22
63493;BME280;49638;47.526;10.028;2022-09-09T07:28:30;91607.56;;;14.71;83.84
63493;BME280;49638;47.526;10.028;2022-09-09T07:31:33;91617.16;;;14.72;84.21
63493;BME280;49638;47.526;10.028;2022-09-09T07:34:35;91614.78;;;14.65;83.01
63493;BME280;49638;47.526;10.028;2022-09-09T07:37:37;91607.88;;;14.59;84.46
63493;BME280;49638;47.526;10.028;2022-09-09T07:40:37;91625.69;;;14.63;84.71
63493;BME280;49638;47.526;10.028;2022-09-09T07:43:42;91625.44;;;14.60;84.38
63493;BME280;49638;47.526;10.028;2022-09-09T07:46:44;91628.91;;;14.55;84.85
63493;BME280;49638;47.526;10.028;2022-09-09T07:49:45;91631.81;;;14.49;85.32
63493;BME280;49638;47.526;10.028;2022-09-09T07:52:46;91639.81;;;14.43;85.82
63493;BME280;49638;47.526;10.028;2022-09-09T07:55:46;91631.53;;;14.40;86.60
63493;BME280;49638;47.526;10.028;2022-09-09T07:58:47;91626.78;;;14.32;86.57
63493;BME280;49638;47.526;10.028;2022-09-09T08:01:51;91628.38;;;14.33;87.36
63493;BME280;49638;47.526;10.028;2022-09-09T08:04:54;91631.28;;;14.26;87.15
63493;BME280;49638;47.526;10.028;2022-09-09T08:07:54;91640.59;;;14.29;87.42
63493;BME280;49638;47.526;10.028;2022-09-09T08:11:04;91645.91;;;14.29;88.73
63493;BME280;49638;47.526;10.028;2022-09-09T08:14:06;91640.34;;;14.25;88.28
63493;BME280;49638;47.526;10.028;2022-09-09T08:17:08;91640.09;;;14.27;88.17
63493;BME280;49638;47.526;10.028;2022-09-09T08:20:08;91640.06;;;14.32;87.99
63493;BME280;49638;47.526;10.028;2022-09-09T08:23:09;91633.97;;;14.31;87.85
63493;BME280;49638;47.526;10.028;2022-09-09T08:26:14;91643.78;;;14.41;88.55
63493;BME280;49638;47.526;10.028;2022-09-09T08:29:15;91638.19;;;14.42;88.26
63493;BME280;49638;47.526;10.028;2022-09-09T08:32:15;91642.72;;;14.42;88.19
63493;BME280;49638;47.526;10.028;2022-09-09T08:35:16;91642.72;;;14.47;88.73
63493;BME280;49638;47.526;10.028;2022-09-09T08:38:17;91642.47;;;14.43;89.12
63493;BME280;49638;47.526;10.028;2022-09-09T08:50:52;91652.81;;;14.30;89.32
63493;BME280;49638;47.526;10.028;2022-09-09T08:53:57;91654.97;;;14.28;89.45
63493;BME280;49638;47.526;10.028;2022-09-09T08:56:58;91652.28;;;14.33;89.69
63493;BME280;49638;47.526;10.028;2022-09-09T08:59:59;91651.22;;;14.29;89.54
63493;BME280;49638;47.526;10.028;2022-09-09T09:03:19;91646.19;;;14.27;91.87
63493;BME280;49638;47.526;10.028;2022-09-09T09:12:40;91660.81;;;14.25;90.77
63493;BME280;49638;47.526;10.028;2022-09-09T09:15:42;91660.25;;;14.23;90.65
63493;BME280;49638;47.526;10.028;2022-09-09T09:18:44;91667.97;;;14.29;90.94
63493;BME280;49638;47.526;10.028;2022-09-09T09:21:50;91660.25;;;14.33;91.67
63493;BME280;49638;47.526;10.028;2022-09-09T09:28:23;91666.94;;;14.40;92.02
63493;BME280;49638;47.526;10.028;2022-09-09T09:31:24;91658.13;;;14.40;90.50
63493;BME280;49638;47.526;10.028;2022-09-09T09:34:26;91663.19;;;14.47;90.78
63493;BME280;49638;47.526;10.028;2022-09-09T09:37:31;91662.44;;;14.51;90.58
63493;BME280;49638;47.526;10.028;2022-09-09T09:40:31;91668.50;;;14.57;90.50
63493;BME280;49638;47.526;10.028;2022-09-09T09:43:39;91664.00;;;14.52;90.29
63493;BME280;49638;47.526;10.028;2022-09-09T09:46:40;91664.00;;;14.57;90.15
63493;BME280;49638;47.526;10.028;2022-09-09T09:49:56;91661.09;;;14.54;89.90
63493;BME280;49638;47.526;10.028;2022-09-09T09:53:03;91662.66;;;14.60;89.47
63493;BME280;49638;47.526;10.028;2022-09-09T09:56:09;91651.50;;;14.63;89.68
63493;BME280;49638;47.526;10.028;2022-09-09T09:59:32;91669.28;;;14.73;89.23
63493;BME280;49638;47.526;10.028;2022-09-09T10:02:39;91660.78;;;14.76;88.89
63493;BME280;49638;47.526;10.028;2022-09-09T10:05:45;91662.13;;;14.78;89.16
63493;BME280;49638;47.526;10.028;2022-09-09T10:08:46;91652.00;;;14.75;89.43
63493;BME280;49638;47.526;10.028;2022-09-09T10:15:32;91659.72;;;14.72;90.48
63493;BME280;49638;47.526;10.028;2022-09-09T10:18:47;91656.81;;;14.68;90.75
63493;BME280;49638;47.526;10.028;2022-09-09T10:28:31;91661.06;;;14.69;91.27
63493;BME280;49638;47.526;10.028;2022-09-09T10:31:49;91663.44;;;14.71;92.95
63493;BME280;49638;47.526;10.028;2022-09-09T10:41:13;91657.88;;;14.72;91.06
63493;BME280;49638;47.526;10.028;2022-09-09T10:50:56;91656.81;;;14.68;92.09
63493;BME280;49638;47.526;10.028;2022-09-09T10:57:33;91640.06;;;14.68;91.17
63493;BME280;49638;47.526;10.028;2022-09-09T11:03:39;91639.72;;;14.89;90.80
63493;BME280;49638;47.526;10.028;2022-09-09T11:06:44;91633.03;;;15.02;90.31
63493;BME280;49638;47.526;10.028;2022-09-09T11:09:52;91633.22;;;15.21;91.11
63493;BME280;49638;47.526;10.028;2022-09-09T11:13:02;91615.91;;;15.29;90.53
63493;BME280;49638;47.526;10.028;2022-09-09T11:19:43;91628.00;;;15.55;90.20
63493;BME280;49638;47.526;10.028;2022-09-09T11:22:51;91628.50;;;15.63;89.84
63493;BME280;49638;47.526;10.028;2022-09-09T11:25:58;91627.97;;;15.60;88.68
63493;BME280;49638;47.526;10.028;2022-09-09T11:29:20;91632.75;;;15.64;88.82
63493;BME280;49638;47.526;10.028;2022-09-09T11:32:59;91622.66;;;15.60;88.15
63493;BME280;49638;47.526;10.028;2022-09-09T11:36:41;91615.69;;;15.65;88.21
63493;BME280;49638;47.526;10.028;2022-09-09T11:43:18;91610.25;;;15.85;89.74
63493;BME280;49638;47.526;10.028;2022-09-09T11:46:34;91608.63;;;15.89;89.91
63493;BME280;49638;47.526;10.028;2022-09-09T11:49:41;91609.44;;;15.90;88.65
63493;BME280;49638;47.526;10.028;2022-09-09T11:52:47;91608.63;;;15.89;88.56
63493;BME280;49638;47.526;10.028;2022-09-09T11:56:06;91616.13;;;15.87;88.66
63493;BME280;49638;47.526;10.028;2022-09-09T11:59:20;91622.44;;;15.96;86.85
63493;BME280;49638;47.526;10.028;2022-09-09T12:02:24;91623.19;;;16.02;87.75
63493;BME280;49638;47.526;10.028;2022-09-09T12:05:44;91635.69;;;16.06;87.53
63493;BME280;49638;47.526;10.028;2022-09-09T12:08:50;91633.53;;;16.08;87.84
63493;BME280;49638;47.526;10.028;2022-09-09T12:11:53;91611.69;;;16.06;87.04
63493;BME280;49638;47.526;10.028;2022-09-09T12:18:15;91625.75;;;16.17;86.00
63493;BME280;49638;47.526;10.028;2022-09-09T12:21:33;91622.56;;;16.15;85.88
63493;BME280;49638;47.526;10.028;2022-09-09T12:24:51;91628.22;;;16.08;85.43
63493;BME280;49638;47.526;10.028;2022-09-09T12:37:51;91648.50;;;15.60;87.32
63493;BME280;49638;47.526;10.028;2022-09-09T12:40:58;91646.91;;;15.54;87.62
63493;BME280;49638;47.526;10.028;2022-09-09T12:44:06;91630.19;;;15.43;87.38
63493;BME280;49638;47.526;10.028;2022-09-09T12:47:10;91629.72;;;15.36;86.42
63493;BME280;49638;47.526;10.028;2022-09-09T12:50:18;91640.13;;;15.32;88.10
63493;BME280;49638;47.526;10.028;2022-09-09T12:53:27;91629.72;;;15.31;86.59
63493;BME280;49638;47.526;10.028;2022-09-09T12:56:31;91626.00;;;15.32;86.99
63493;BME280;49638;47.526;10.028;2022-09-09T12:59:38;91629.66;;;15.41;87.20
63493;BME280;49638;47.526;10.028;2022-09-09T13:03:16;91637.66;;;15.46;83.34
63493;BME280;49638;47.526;10.028;2022-09-09T13:06:26;91622.69;;;15.50;85.93
63493;BME280;49638;47.526;10.028;2022-09-09T13:09:27;91635.41;;;15.64;86.07
63493;BME280;49638;47.526;10.028;2022-09-09T13:12:27;91619.94;;;15.66;86.19
63493;BME280;49638;47.526;10.028;2022-09-09T13:15:29;91630.84;;;15.79;85.97
63493;BME280;49638;47.526;10.028;2022-09-09T13:18:39;91626.00;;;15.87;84.23
63493;BME280;49638;47.526;10.028;2022-09-09T13:21:40;91618.47;;;15.94;85.44
63493;BME280;49638;47.526;10.028;2022-09-09T13:24:40;91620.28;;;15.98;85.32
63493;BME280;49638;47.526;10.028;2022-09-09T13:27:52;91606.69;;;16.00;84.85
63493;BME280;49638;47.526;10.028;2022-09-09T13:31:01;91614.34;;;16.06;84.47
63493;BME280;49638;47.526;10.028;2022-09-09T13:34:30;91603.75;;;16.01;82.14
63493;BME280;49638;47.526;10.028;2022-09-09T13:37:36;91606.13;;;16.03;83.26
63493;BME280;49638;47.526;10.028;2022-09-09T13:40:37;91594.72;;;15.97;84.26
63493;BME280;49638;47.526;10.028;2022-09-09T13:43:42;91612.03;;;16.00;84.06
63493;BME280;49638;47.526;10.028;2022-09-09T13:46:44;91610.47;;;15.94;84.23
63493;BME280;49638;47.526;10.028;2022-09-09T13:49:45;91602.75;;;15.92;84.31
63493;BME280;49638;47.526;10.028;2022-09-09T13:52:47;91594.78;;;15.87;84.44
63493;BME280;49638;47.526;10.028;2022-09-09T13:55:50;91595.84;;;15.86;83.97
63493;BME280;49638;47.526;10.028;2022-09-09T13:58:50;91586.81;;;15.82;84.50
63493;BME280;49638;47.526;10.028;2022-09-09T14:01:51;91588.19;;;15.79;84.06
63493;BME280;49638;47.526;10.028;2022-09-09T14:04:52;91574.13;;;15.69;83.73
63493;BME280;49638;47.526;10.028;2022-09-09T14:07:55;91581.00;;;15.75;83.61
63493;BME280;49638;47.526;10.028;2022-09-09T14:10:55;91581.31;;;15.73;83.50
63493;BME280;49638;47.526;10.028;2022-09-09T14:13:58;91578.34;;;15.80;82.91
63493;BME280;49638;47.526;10.028;2022-09-09T14:16:58;91582.03;;;15.84;82.99
63493;BME280;49638;47.526;10.028;2022-09-09T14:19:58;91580.94;;;15.85;82.33
63493;BME280;49638;47.526;10.028;2022-09-09T14:22:59;91579.34;;;15.84;82.21
63493;BME280;49638;47.526;10.028;2022-09-09T14:25:59;91573.97;;;15.89;81.85
63493;BME280;49638;47.526;10.028;2022-09-09T14:28:59;91570.75;;;15.92;81.11
63493;BME280;49638;47.526;10.028;2022-09-09T14:32:01;91575.53;;;15.95;80.63
63493;BME280;49638;47.526;10.028;2022-09-09T14:35:01;91576.09;;;15.92;80.32
63493;BME280;49638;47.526;10.028;2022-09-09T14:38:03;91573.44;;;15.92;79.82
63493;BME280;49638;47.526;10.028;2022-09-09T14:41:05;91577.41;;;15.95;80.09
63493;BME280;49638;47.526;10.028;2022-09-09T14:44:06;91562.22;;;15.95;80.26
63493;BME280;49638;47.526;10.028;2022-09-09T14:47:07;91570.91;;;16.06;79.79
63493;BME280;49638;47.526;10.028;2022-09-09T14:50:08;91565.31;;;16.07;79.54
63493;BME280;49638;47.526;10.028;2022-09-09T14:53:08;91556.78;;;16.05;78.91
63493;BME280;49638;47.526;10.028;2022-09-09T14:56:15;91570.59;;;16.13;78.57
63493;BME280;49638;47.526;10.028;2022-09-09T14:59:15;91557.03;;;16.09;79.07
63493;BME280;49638;47.526;10.028;2022-09-09T15:02:16;91569.25;;;16.15;79.13
63493;BME280;49638;47.526;10.028;2022-09-09T15:05:16;91561.56;;;16.08;79.49
63493;BME280;49638;47.526;10.028;2022-09-09T15:08:17;91553.88;;;16.02;79.66
63493;BME280;49638;47.526;10.028;2022-09-09T15:11:18;91565.56;;;16.06;79.22
63493;BME280;49638;47.526;10.028;2022-09-09T15:14:18;91551.53;;;15.95;79.06
63493;BME280;49638;47.526;10.028;2022-09-09T15:17:18;91558.47;;;15.96;79.20
63493;BME280;49638;47.526;10.028;2022-09-09T15:20:20;91559.78;;;15.99;78.72
63493;BME280;49638;47.526;10.028;2022-09-09T15:23:20;91556.28;;;16.03;78.58
63493;BME280;49638;47.526;10.028;2022-09-09T15:26:21;91557.31;;;16.07;78.26
63493;BME280;49638;47.526;10.028;2022-09-09T15:29:21;91556.78;;;16.05;78.30
63493;BME280;49638;47.526;10.028;2022-09-09T15:32:21;91569.03;;;16.06;77.92
63493;BME280;49638;47.526;10.028;2022-09-09T15:35:22;91562.41;;;16.04;78.67
63493;BME280;49638;47.526;10.028;2022-09-09T15:38:22;91548.38;;;15.93;78.30
63493;BME280;49638;47.526;10.028;2022-09-09T15:41:23;91553.88;;;16.02;78.18
63493;BME280;49638;47.526;10.028;2022-09-09T15:44:23;91563.44;;;16.08;77.76
63493;BME280;49638;47.526;10.028;2022-09-09T15:47:25;91557.31;;;16.07;77.07
63493;BME280;49638;47.526;10.028;2022-09-09T15:50:26;91553.03;;;16.06;77.44
63493;BME280;49638;47.526;10.028;2022-09-09T15:53:26;91542.16;;;16.03;77.64
63493;BME280;49638;47.526;10.028;2022-09-09T15:56:28;91549.41;;;15.97;77.55
63493;BME280;49638;47.526;10.028;2022-09-09T15:59:31;91560.34;;;15.96;77.84
63493;BME280;49638;47.526;10.028;2022-09-09T16:02:31;91552.94;;;15.88;77.97
63493;BME280;49638;47.526;10.028;2022-09-09T16:05:32;91555.63;;;15.82;78.04
63493;BME280;49638;47.526;10.028;2022-09-09T16:08:34;91555.16;;;15.75;78.65
63493;BME280;49638;47.526;10.028;2022-09-09T16:11:36;91552.00;;;15.73;80.18
63493;BME280;49638;47.526;10.028;2022-09-09T16:14:37;91554.94;;;15.72;81.35
63493;BME280;49638;47.526;10.028;2022-09-09T16:17:38;91549.34;;;15.68;82.32
63493;BME280;49638;47.526;10.028;2022-09-09T16:20:39;91552.53;;;15.65;82.97
63493;BME280;49638;47.526;10.028;2022-09-09T16:23:41;91553.38;;;15.60;83.11
63493;BME280;49638;47.526;10.028;2022-09-09T16:26:44;91552.63;;;15.55;83.84
63493;BME280;49638;47.526;10.028;2022-09-09T16:29:45;91558.78;;;15.50;84.24
63493;BME280;49638;47.526;10.028;2022-09-09T16:32:45;91558.00;;;15.45;84.31
63493;BME280;49638;47.526;10.028;2022-09-09T16:35:45;91569.75;;;15.44;84.84
63493;BME280;49638;47.526;10.028;2022-09-09T16:38:46;91557.50;;;15.43;84.94
63493;BME280;49638;47.526;10.028;2022-09-09T16:41:47;91561.47;;;15.45;85.09
63493;BME280;49638;47.526;10.028;2022-09-09T16:44:48;91555.66;;;15.38;85.35
63493;BME280;49638;47.526;10.028;2022-09-09T16:47:50;91560.72;;;15.34;85.75
63493;BME280;49638;47.526;10.028;2022-09-09T16:50:50;91561.81;;;15.28;86.20
63493;BME280;49638;47.526;10.028;2022-09-09T16:53:51;91555.75;;;15.18;85.79
63493;BME280;49638;47.526;10.028;2022-09-09T16:56:51;91571.50;;;15.14;86.26
63493;BME280;49638;47.526;10.028;2022-09-09T16:59:51;91563.56;;;15.04;86.75
63493;BME280;49638;47.526;10.028;2022-09-09T17:02:54;91573.19;;;14.95;87.63
63493;BME280;49638;47.526;10.028;2022-09-09T17:05:54;91575.63;;;14.81;87.17
63493;BME280;49638;47.526;10.028;2022-09-09T17:08:59;91577.78;;;14.79;87.43
63493;BME280;49638;47.526;10.028;2022-09-09T17:12:00;91583.38;;;14.72;87.65
63493;BME280;49638;47.526;10.028;2022-09-09T17:15:01;91590.56;;;14.72;87.96
63493;BME280;49638;47.526;10.028;2022-09-09T17:18:03;91604.66;;;14.67;88.14
63493;BME280;49638;47.526;10.028;2022-09-09T17:21:05;91588.97;;;14.60;88.54
63493;BME280;49638;47.526;10.028;2022-09-09T17:24:06;91586.34;;;14.55;88.83
63493;BME280;49638;47.526;10.028;2022-09-09T17:27:07;91589.28;;;14.43;88.40
63493;BME280;49638;47.526;10.028;2022-09-09T17:30:09;91589.81;;;14.35;88.83
63493;BME280;49638;47.526;10.028;2022-09-09T17:33:09;91593.25;;;14.36;89.07
63493;BME280;49638;47.526;10.028;2022-09-09T17:36:12;91604.44;;;14.33;89.29
63493;BME280;49638;47.526;10.028;2022-09-09T17:39:14;91603.41;;;14.24;89.27
63493;BME280;49638;47.526;10.028;2022-09-09T17:42:14;91612.16;;;14.24;89.33
63493;BME280;49638;47.526;10.028;2022-09-09T17:45:14;91612.16;;;14.19;89.28
63493;BME280;49638;47.526;10.028;2022-09-09T17:48:15;91606.31;;;14.12;89.46